Date,TemperatureHighF,TemperatureAvgF,TemperatureLowF,DewpointHighF,DewpointAvgF,DewpointLowF,HumidityHigh,HumidityAvg,HumidityLow,PressureMaxIn,PressureMinIn,WindSpeedMaxMPH,WindSpeedAvgMPH,GustSpeedMaxMPH,PrecipitationSumIn
2012-10-13,35.8,25.7,21.2,19.4,14.7,12.2,85,66,46,29.23,29.21,4,-68,6,0.00
2012-10-14,23.4,17.0,18.0,15.8,4.6,-99.9,92,81,78,29.23,29.12,5,-98,6,0.00
2012-10-19,34.5,24.1,18.1,99.9,16.8,14.0,85,71,51,29.91,28.64,6,0,6,0.00
2012-10-20,34.0,13.8,-5.1,19.5,4.4,-15.4,82,66,51,28.97,28.76,7,1,7,0.00
2012-10-21,24.8,-1.8,-14.4,11.3,-13.1,-24.3,65,58,48,28.97,28.73,6,1,6,0.04
2012-10-22,22.3,-2.7,-16.1,8.5,-13.4,-25.6,62,59,56,28.91,28.70,7,2,7,0.00
2012-10-23,19.9,-2.2,-13.7,7.0,-13.6,-24.8,62,57,57,29.00,28.91,5,1,5,0.00
2012-10-24,15.4,-8.6,-17.5,3.6,-19.5,-27.9,60,58,58,29.03,28.94,6,1,6,0.00
2012-10-25,13.3,-3.4,-14.1,3.4,-13.4,-24.6,64,61,58,29.00,28.88,6,1,6,0.00
2012-10-26,23.0,12.7,3.2,14.3,4.6,-6.2,81,70,64,28.94,28.76,5,1,5,0.00
2012-10-27,23.5,7.7,-5.1,14.0,1.4,-9.9,81,75,65,30.06,28.67,5,1,5,0.00
2012-10-28,23.7,10.8,-2.2,14.5,5.2,-8.5,83,78,66,29.97,29.85,7,2,7,0.00
2012-10-29,27.7,13.6,-1.3,23.3,7.9,-7.6,91,78,70,29.91,29.76,10,2,10,0.00
2012-10-30,18.5,14.3,9.5,14.2,9.1,3.5,84,80,76,29.85,29.79,12,5,12,0.00
2012-10-31,14.2,9.5,-5.4,7.7,2.7,-13.2,76,73,68,29.79,29.68,17,7,18,0.00
2012-11-1,9.7,-8.3,-18.4,1.5,-15.8,-25.5,69,69,69,29.88,29.73,8,2,8,0.00
2012-11-2,7.0,-8.7,-25.1,-1.1,-16.2,-31.9,69,69,69,29.82,29.38,4,1,4,0.00
2012-11-3,11.3,6.0,-9.4,3.1,-2.0,-16.8,69,69,69,29.53,29.41,7,1,7,0.00
2012-11-4,9.3,1.4,-9.6,1.2,-6.4,-17.0,69,69,69,29.67,29.50,8,2,8,0.00
2012-11-5,5.2,-3.0,-21.1,-2.8,-10.7,-28.1,69,69,69,30.00,29.65,6,3,6,0.00
2012-11-6,-3.3,-21.2,-28.7,-10.9,-28.2,-35.4,69,69,69,30.24,29.97,5,1,5,0.00
2012-11-7,-0.6,-20.4,-27.6,-8.3,-27.4,-34.3,69,69,69,30.26,30.21,4,1,4,0.00
2012-11-8,29.8,4.6,-23.1,10.6,-12.1,-30.0,82,50,30,30.24,29.88,46,16,51,0.00
2012-11-9,35.8,33.2,29.8,22.8,16.1,4.2,59,49,33,29.88,29.53,39,22,65,0.00
2012-11-10,36.1,17.6,13.6,22.8,11.1,7.6,81,76,50,29.53,29.50,22,4,32,0.00
2012-11-11,13.6,10.4,7.7,8.6,5.4,2.8,80,80,80,29.79,29.53,6,2,8,0.00
2012-11-12,10.4,3.9,-18.8,5.5,-0.9,-23.0,80,80,80,30.03,29.79,2,1,2,0.00
2012-11-13,26.4,-6.7,-24.2,7.6,-13.4,-28.3,80,74,42,30.00,29.47,30,3,38,0.00
2012-11-14,32.0,10.9,5.5,99.9,0.2,-5.0,69,60,44,29.91,29.32,30,4,39,0.00
2012-11-15,8.8,1.0,-25.8,-1.9,-9.4,-34.8,61,61,61,29.85,29.44,9,3,14,0.00
2012-11-16,-13.7,-27.6,-33.9,-23.3,-36.6,-42.5,61,61,61,29.91,29.67,5,1,6,0.00
2012-11-17,-9.8,-20.4,-32.3,-19.6,-29.7,-41.0,61,61,61,29.70,29.26,7,2,9,0.00
2012-11-18,-5.8,-13.6,-22.0,-15.8,-23.2,-31.2,61,61,61,29.56,29.26,7,2,8,0.00
2012-11-19,-14.8,-23.9,-30.3,-24.4,-33.0,-39.1,61,61,61,29.73,29.56,6,2,7,0.00
2012-11-20,-19.5,-28.8,-33.7,-28.8,-37.7,-42.4,61,61,61,29.82,29.67,3,1,4,0.00
2012-11-21,-19.3,-28.9,-33.7,-28.6,-37.8,-42.4,61,61,61,29.91,29.79,2,0,3,0.00
2012-11-22,-20.4,-29.9,-33.3,-29.7,-38.8,-42.0,61,61,61,29.91,29.67,2,0,2,0.00
2012-11-23,-19.8,-27.9,-31.4,-29.1,-36.8,-40.1,61,61,61,29.82,29.65,2,0,2,0.00
2012-11-24,-22.2,-28.7,-31.7,-31.4,-37.6,-40.5,61,61,61,29.94,29.79,2,0,2,0.00
2012-11-25,-18.8,-24.5,-27.2,-28.1,-33.6,-36.2,61,61,61,30.18,29.94,3,0,4,0.00
2012-11-26,8.8,0.3,-19.3,-1.9,-10.0,-28.6,61,61,61,30.15,29.94,13,5,20,0.00
2012-11-27,7.5,-7.8,-23.1,-3.1,-17.7,-32.2,61,61,61,30.06,29.91,13,2,17,0.00
2012-11-28,-22.9,-28.5,-34.2,-32.1,-37.4,-42.9,61,61,61,30.06,29.88,3,0,3,0.00
2012-11-29,-27.6,-32.9,-36.6,-36.7,-41.6,-45.1,61,61,61,29.91,29.85,3,0,4,0.00
2012-11-30,-29.4,-34.4,-36.2,-38.2,-43.1,-44.8,61,61,61,29.91,29.76,2,0,3,0.00
2012-12-1,-29.4,-33.6,-35.7,-38.2,-42.3,-44.2,61,61,61,29.76,29.62,2,0,2,0.00
2012-12-2,-30.3,-36.0,-41.8,-39.1,-44.5,-50.1,61,61,61,29.73,29.56,2,0,2,0.00
2012-12-3,-37.7,-40.9,-43.2,-46.1,-49.3,-51.5,61,61,61,29.82,29.70,2,0,2,0.00
2012-12-4,-37.7,-42.0,-44.7,-46.1,-50.3,-52.8,61,61,61,29.76,29.56,1,0,1,0.00
2012-12-5,-23.8,-32.0,-39.1,-32.9,-40.7,-47.5,61,61,61,29.65,29.56,2,0,2,0.00
2012-12-6,-33.7,-37.6,-39.6,-42.4,-46.1,-48.0,61,61,61,29.82,29.62,0,0,1,0.00
2012-12-7,-32.3,-36.3,-37.7,-41.0,-44.8,-46.1,61,61,61,29.85,29.79,1,0,2,0.00
2012-12-8,26.6,-8.6,-36.8,15.9,-19.0,-45.3,76,60,45,29.79,29.14,32,6,35,0.00
2012-12-9,26.2,-0.5,-5.1,22.2,-13.0,-17.5,91,55,46,29.41,29.11,26,2,33,0.00
2012-12-10,8.6,3.2,-5.1,-4.7,-9.7,-17.5,54,54,54,29.62,29.38,3,3,3,0.00
2012-12-11,27.5,13.6,5.9,18.6,3.7,-7.2,94,65,54,29.76,29.26,33,6,50,0.00
2012-12-12,32.0,28.7,26.8,99.9,18.3,13.0,92,64,54,29.91,28.97,38,18,62,0.00
2012-12-13,28.6,15.2,-9.0,19.4,3.6,-20.2,77,60,53,29.26,28.97,26,6,37,0.00
2012-12-14,0.0,-8.7,-28.8,-11.7,-19.9,-38.9,57,57,57,29.23,24.00,4,1,6,0.00
2012-12-15,-26.3,-34.1,-40.5,-36.5,-43.9,-50.0,57,57,57,29.47,29.23,2,1,2,0.00
2012-12-16,-26.7,-33.2,-42.5,-36.9,-43.1,-51.9,57,57,57,29.67,29.44,2,0,2,0.00
2012-12-17,9.9,-20.6,-42.3,-2.4,-31.2,-51.7,57,57,57,29.65,29.29,38,9,47,0.00
2012-12-18,13.8,-2.6,-22.2,1.4,-14.1,-32.6,57,57,57,29.67,29.20,37,10,46,0.00
2012-12-19,-17.7,-23.7,-36.6,-28.3,-34.0,-46.2,57,57,57,30.24,27.97,3,1,4,0.00
2012-12-20,-36.6,-42.1,-44.7,-46.2,-51.5,-53.9,57,57,57,30.35,30.21,4,1,4,0.00
2012-12-21,-40.4,-43.4,-45.4,-49.8,-52.7,-54.6,57,57,57,30.26,30.00,2,1,2,0.00
2012-12-22,-37.7,-41.9,-45.8,-47.3,-51.3,-55.0,57,57,57,30.03,29.73,4,1,4,0.00
2012-12-23,-7.4,-35.2,-40.4,-19.7,-44.9,-49.8,57,57,57,29.76,29.47,16,2,16,0.00
2012-12-24,31.1,5.6,-23.6,12.5,-10.0,-34.0,70,49,42,29.50,29.38,39,14,39,0.00
2012-12-25,35.4,24.9,0.0,12.8,2.4,-19.2,42,37,32,29.50,29.35,51,20,51,0.00
2012-12-26,37.2,26.1,0.3,18.7,9.1,-18.9,75,48,39,29.50,29.20,38,16,38,0.00
2012-12-27,38.8,18.6,-1.8,19.3,0.6,-18.5,47,45,37,29.29,29.20,42,12,42,0.00
2012-12-28,37.9,23.0,1.2,27.2,6.8,-15.7,95,50,44,29.41,29.29,46,16,46,0.00
2012-12-29,39.6,38.4,37.2,22.3,21.1,19.0,53,49,47,29.35,29.11,58,24,58,0.00
2012-12-30,47.5,43.2,39.0,25.7,22.5,18.9,48,44,40,29.26,28.91,54,22,54,0.00
2012-12-31,40.3,37.4,34.2,24.9,19.5,15.0,59,48,45,29.62,29.11,48,23,48,0.00
2013-1-1,41.0,39.0,36.0,23.0,19.9,16.9,57,46,41,29.53,28.97,57,23,57,0.00